Time;durP1;ratioP1;P1;durP2;ratioP2;P2;SDS_P1;SDS_P2;PMS_P1;PMS_P2;Temp;Humidity;BMP_temperature;BMP_pressure;BME280_temperature;BME280_humidity;BME280_pressure;Samples;Min_cycle;Max_cycle;Signal;HPM_P1;HPM_P2
2024/01/15 00:01:33;;;;;;;181.98;78.38;;;;;;;-6.16;90.02;98726.06;4960527;28;20044;-77
2024/01/15 00:04:18;;;;;;;153.93;63.65;;;;;;;-6.14;90.55;98728.50;4966487;28;20430;-76
2024/01/15 00:07:04;;;;;;;160.25;62.33;;;;;;;-6.19;90.73;98730.69;4969617;28;20065;-77
2024/01/15 00:09:49;;;;;;;135.20;54.17;;;;;;;-6.22;90.82;98705.91;4950462;28;20416;-76
2024/01/15 00:12:35;;;;;;;142.65;60.83;;;;;;;-6.22;91.11;98715.44;4962016;28;20051;-77
2024/01/15 00:15:23;;;;;;;149.50;63.40;;;;;;;-6.23;90.72;98703.47;4965103;28;20047;-79
2024/01/15 00:18:09;;;;;;;127.30;54.45;;;;;;;-6.20;90.88;98709.19;4989018;28;20045;-75
2024/01/15 00:20:54;;;;;;;125.55;51.92;;;;;;;-6.24;90.67;98712.97;4982144;28;20387;-77
2024/01/15 00:23:44;;;;;;;153.13;63.08;;;;;;;-6.23;90.88;98700.88;4961305;28;20040;-77
2024/01/15 00:26:29;;;;;;;148.05;63.70;;;;;;;-6.19;90.49;98708.22;4982245;28;20053;-77
2024/01/15 00:29:14;;;;;;;157.20;65.43;;;;;;;-6.28;90.80;98691.75;4977777;28;20041;-78
2024/01/15 00:32:00;;;;;;;157.63;68.32;;;;;;;-6.19;91.00;98708.22;4966181;28;20456;-79
2024/01/15 00:34:46;;;;;;;163.85;70.47;;;;;;;-6.28;90.27;98696.09;4953767;28;20048;-78
2024/01/15 00:37:31;;;;;;;158.90;65.43;;;;;;;-6.29;90.99;98702.25;4978221;28;20055;-78
2024/01/15 00:40:16;;;;;;;252.73;110.82;;;;;;;-6.28;90.66;98706.44;4963759;28;20480;-78
2024/01/15 00:43:02;;;;;;;250.90;102.30;;;;;;;-6.26;91.37;98714.91;4960679;28;20056;-76
2024/01/15 00:45:48;;;;;;;187.40;79.68;;;;;;;-6.36;90.90;98688.19;4960778;28;20045;-77
2024/01/15 00:48:33;;;;;;;188.38;77.97;;;;;;;-6.37;90.34;98694.31;4965653;28;20490;-76
2024/01/15 00:51:19;;;;;;;167.63;72.35;;;;;;;-6.38;90.96;98688.34;4953292;28;20459;-79
2024/01/15 00:54:05;;;;;;;175.18;74.95;;;;;;;-6.37;90.83;98687.38;4964406;28;20392;-78
2024/01/15 00:56:50;;;;;;;194.77;78.70;;;;;;;-6.39;91.04;98691.03;4955384;28;20033;-76
2024/01/15 00:59:36;;;;;;;226.27;90.93;;;;;;;-6.47;90.89;98670.25;4952693;28;20055;-77
2024/01/15 01:02:21;;;;;;;276.83;105.32;;;;;;;-6.47;90.38;98683.16;4958591;28;20398;-80
2024/01/15 01:05:07;;;;;;;213.73;88.15;;;;;;;-6.43;90.40;98685.34;4961694;28;20037;-79
2024/01/15 01:07:52;;;;;;;209.05;88.50;;;;;;;-6.48;90.60;98681.53;4949112;28;20492;-78
2024/01/15 01:10:38;;;;;;;246.88;101.05;;;;;;;-6.54;90.69;98678.53;4952137;28;20051;-79
2024/01/15 01:13:24;;;;;;;274.70;119.05;;;;;;;-6.60;90.60;98670.50;4954229;28;20085;-78
2024/01/15 01:16:09;;;;;;;247.85;106.88;;;;;;;-6.61;90.29;98664.53;4960258;28;20465;-78
2024/01/15 01:18:55;;;;;;;168.63;74.25;;;;;;;-6.71;90.25;98642.19;4959978;28;20036;-77
2024/01/15 01:21:40;;;;;;;124.47;51.25;;;;;;;-6.64;90.53;98661.34;4946890;28;20399;-78
2024/01/15 01:24:27;;;;;;;160.35;70.57;;;;;;;-6.65;90.11;98632.13;4967291;28;20467;-79
2024/01/15 01:27:11;;;;;;;144.75;62.25;;;;;;;-6.72;91.08;98619.88;4959221;28;20411;-78
2024/01/15 01:29:57;;;;;;;147.10;63.05;;;;;;;-6.60;90.73;98645.47;4961320;28;20456;-78
2024/01/15 01:32:43;;;;;;;136.38;56.08;;;;;;;-6.64;90.58;98643.25;4958175;28;20047;-79
2024/01/15 01:35:28;;;;;;;148.27;57.20;;;;;;;-6.60;90.82;98652.41;4967467;28;20399;-78
2024/01/15 01:38:14;;;;;;;97.35;43.15;;;;;;;-6.54;90.95;98659.63;4962113;28;20055;-80
2024/01/15 01:41:00;;;;;;;133.77;53.28;;;;;;;-6.60;90.70;98655.81;4947073;28;20046;-78
2024/01/15 01:43:45;;;;;;;131.82;49.55;;;;;;;-6.78;90.76;98626.41;4971827;28;20477;-76
2024/01/15 01:46:31;;;;;;;136.43;53.40;;;;;;;-6.83;90.36;98636.31;4973491;28;20060;-78
2024/01/15 01:49:16;;;;;;;129.35;52.53;;;;;;;-6.89;90.21;98635.09;4963905;28;20461;-77
2024/01/15 01:52:03;;;;;;;141.48;57.45;;;;;;;-6.91;90.40;98623.25;4972909;28;20367;-78
2024/01/15 01:54:49;;;;;;;157.93;61.30;;;;;;;-6.81;90.73;98629.25;4954214;28;20476;-77
2024/01/15 01:57:35;;;;;;;194.02;72.25;;;;;;;-6.95;91.07;98614.16;4962321;28;20047;-79
2024/01/15 02:00:20;;;;;;;351.55;107.15;;;;;;;-6.84;90.80;98606.25;4970289;28;20049;-81
2024/01/15 02:03:05;;;;;;;341.35;117.18;;;;;;;-6.84;91.09;98616.59;4941867;28;20388;-77
2024/01/15 02:05:51;;;;;;;301.88;107.60;;;;;;;-6.82;91.08;98609.53;4961223;28;20412;-79
2024/01/15 02:08:36;;;;;;;306.35;115.80;;;;;;;-6.83;91.47;98615.63;4965303;28;20034;-78
2024/01/15 02:11:22;;;;;;;314.60;117.80;;;;;;;-6.94;91.70;98584.78;4969354;28;20049;-77
2024/01/15 02:14:07;;;;;;;340.30;123.90;;;;;;;-6.86;90.92;98592.66;4955432;28;20043;-78
2024/01/15 02:16:52;;;;;;;319.65;121.88;;;;;;;-6.89;91.72;98603.25;4952666;28;20221;-80
2024/01/15 02:19:39;;;;;;;326.55;126.57;;;;;;;-6.85;91.67;98597.69;4972225;28;20049;-78
2024/01/15 02:22:24;;;;;;;306.10;118.55;;;;;;;-6.81;91.81;98595.66;4975105;28;20045;-77
2024/01/15 02:25:10;;;;;;;257.23;106.38;;;;;;;-6.88;91.34;98584.25;4953164;28;20402;-79
2024/01/15 02:27:55;;;;;;;196.73;76.85;;;;;;;-6.83;91.34;98571.72;4959970;28;20049;-79
2024/01/15 02:30:41;;;;;;;165.30;67.05;;;;;;;-6.86;91.47;98577.16;4960253;28;20395;-79
2024/01/15 02:33:27;;;;;;;142.93;67.10;;;;;;;-6.92;91.02;98554.47;5001058;28;20464;-78
2024/01/15 02:36:12;;;;;;;162.15;73.75;;;;;;;-7.01;91.57;98533.66;4959710;28;20045;-78
2024/01/15 02:38:58;;;;;;;188.73;85.53;;;;;;;-6.92;90.89;98552.69;4956507;28;20411;-78
2024/01/15 02:41:44;;;;;;;183.05;84.45;;;;;;;-7.03;91.62;98535.53;4962644;28;20037;-78
2024/01/15 02:44:29;;;;;;;199.00;87.57;;;;;;;-6.97;91.13;98541.94;4960334;28;20042;-78
2024/01/15 02:47:15;;;;;;;217.65;93.68;;;;;;;-6.92;91.38;98536.38;4942727;28;20438;-78
2024/01/15 02:50:00;;;;;;;250.55;110.20;;;;;;;-7.06;91.97;98514.34;4949417;28;20037;-77
2024/01/15 02:52:46;;;;;;;227.27;101.15;;;;;;;-6.98;91.57;98532.56;4965743;28;20406;-78
2024/01/15 02:55:30;;;;;;;256.35;105.97;;;;;;;-7.01;91.58;98527.66;4950063;28;20052;-79
2024/01/15 02:58:16;;;;;;;215.05;93.47;;;;;;;-7.04;90.64;98528.75;4959241;28;20053;-78
2024/01/15 03:01:02;;;;;;;186.80;86.63;;;;;;;-7.04;91.40;98517.59;4953361;28;20049;-77
2024/01/15 03:03:47;;;;;;;149.93;70.30;;;;;;;-7.05;90.84;98519.38;4946042;28;20414;-77
2024/01/15 03:06:33;;;;;;;217.90;93.78;;;;;;;-7.03;91.61;98504.53;4952729;28;20397;-79
2024/01/15 03:09:18;;;;;;;226.18;100.75;;;;;;;-7.00;91.19;98513.78;4950719;28;20055;-78
2024/01/15 03:12:03;;;;;;;233.95;105.40;;;;;;;-7.00;91.32;98506.84;4945158;28;20475;-78
2024/01/15 03:14:49;;;;;;;211.35;93.35;;;;;;;-7.10;91.55;98493.13;4964983;28;20045;-79
2024/01/15 03:17:34;;;;;;;214.40;96.05;;;;;;;-6.92;90.92;98503.59;4985482;28;20298;-78
2024/01/15 03:20:19;;;;;;;217.52;96.63;;;;;;;-6.86;90.87;98509.97;4966710;28;20434;-79
2024/01/15 03:23:05;;;;;;;190.15;87.93;;;;;;;-6.85;90.96;98498.72;4962694;28;20450;-78
2024/01/15 03:25:51;;;;;;;183.05;83.40;;;;;;;-6.84;91.12;98497.75;4956335;28;20039;-77
2024/01/15 03:28:36;;;;;;;191.43;83.07;;;;;;;-6.82;90.66;98493.25;4951062;28;20462;-78
2024/01/15 03:31:22;;;;;;;164.85;72.28;;;;;;;-6.79;90.50;98493.00;4959817;28;20040;-79
2024/01/15 03:34:08;;;;;;;146.40;63.08;;;;;;;-6.78;90.41;98489.44;4965650;28;20043;-78
2024/01/15 03:36:53;;;;;;;134.23;60.00;;;;;;;-6.77;89.69;98493.66;4946098;28;20491;-79
2024/01/15 03:39:39;;;;;;;117.10;53.30;;;;;;;-6.79;89.89;98490.41;4951775;28;20037;-79
2024/01/15 03:42:23;;;;;;;123.15;53.15;;;;;;;-6.70;89.29;98489.59;4968764;28;20392;-76
2024/01/15 03:45:09;;;;;;;150.80;62.75;;;;;;;-6.74;90.14;98493.38;4961667;28;20048;-78
2024/01/15 03:47:54;;;;;;;152.13;67.20;;;;;;;-6.76;89.74;98465.09;4958938;28;20053;-78
2024/01/15 03:50:40;;;;;;;241.10;107.20;;;;;;;-6.67;89.82;98478.16;4958576;28;20050;-77
2024/01/15 03:53:26;;;;;;;216.23;102.28;;;;;;;-6.68;89.81;98474.75;4959502;28;20052;-78
2024/01/15 03:56:11;;;;;;;216.68;90.82;;;;;;;-6.66;89.51;98472.03;4961470;28;20391;-77
2024/01/15 03:58:57;;;;;;;225.75;99.47;;;;;;;-6.55;90.16;98467.53;4959114;28;20029;-78
2024/01/15 04:01:48;;;;;;;214.10;99.82;;;;;;;-6.32;90.02;98483.50;4958032;28;20405;-78
2024/01/15 04:04:34;;;;;;;237.02;105.95;;;;;;;-6.33;89.77;98470.72;4958758;28;20404;-77
2024/01/15 04:07:20;;;;;;;238.55;107.72;;;;;;;-6.33;89.92;98452.59;4959168;28;20049;-78
2024/01/15 04:10:05;;;;;;;222.10;98.15;;;;;;;-6.15;89.98;98476.78;4962702;28;20399;-78
2024/01/15 04:12:51;;;;;;;222.73;101.85;;;;;;;-6.15;89.68;98474.19;4958280;28;20055;-78
2024/01/15 04:15:37;;;;;;;216.45;103.03;;;;;;;-6.08;90.42;98459.75;4960661;28;20394;-78
2024/01/15 04:18:23;;;;;;;225.25;105.20;;;;;;;-6.09;89.91;98452.94;4958584;28;20460;-77
2024/01/15 04:21:08;;;;;;;197.52;91.13;;;;;;;-6.14;89.57;98456.91;4954565;28;20046;-77
2024/01/15 04:23:54;;;;;;;187.05;86.18;;;;;;;-6.12;89.86;98460.97;4960686;28;20040;-77
2024/01/15 04:26:40;;;;;;;182.60;74.93;;;;;;;-6.20;89.66;98458.31;4961238;28;20046;-77
2024/01/15 04:29:25;;;;;;;169.25;74.47;;;;;;;-6.22;90.16;98452.44;4959162;28;20406;-78
2024/01/15 04:32:11;;;;;;;159.23;68.50;;;;;;;-6.28;90.63;98438.31;4958517;28;20048;-80
2024/01/15 04:34:56;;;;;;;154.13;66.57;;;;;;;-6.36;90.12;98414.94;4958051;28;20464;-76
2024/01/15 04:37:42;;;;;;;163.07;72.40;;;;;;;-6.31;90.08;98427.44;4965852;28;20041;-78
2024/01/15 04:40:28;;;;;;;160.50;77.53;;;;;;;-6.28;90.33;98440.09;4963016;28;20049;-79
2024/01/15 04:43:13;;;;;;;161.10;70.40;;;;;;;-6.27;90.47;98421.00;4962092;28;20045;-78
2024/01/15 04:45:59;;;;;;;172.07;81.88;;;;;;;-6.19;90.67;98421.13;4983479;28;20037;-78
2024/01/15 04:48:44;;;;;;;179.32;82.22;;;;;;;-6.24;90.62;98399.22;4973613;28;20059;-77
2024/01/15 04:51:30;;;;;;;167.27;72.55;;;;;;;-6.11;90.46;98403.13;4978734;28;20485;-77
2024/01/15 04:54:17;;;;;;;197.45;90.90;;;;;;;-6.06;90.71;98395.72;4967489;28;20463;-78
2024/01/15 04:57:02;;;;;;;191.73;85.40;;;;;;;-5.89;90.29;98416.56;4964069;28;20036;-77
2024/01/15 04:59:48;;;;;;;194.13;87.55;;;;;;;-5.78;90.39;98398.28;4973901;28;20042;-79
2024/01/15 05:02:33;;;;;;;217.18;94.68;;;;;;;-5.79;89.29;98401.84;4953633;28;20400;-79
2024/01/15 05:05:19;;;;;;;224.43;100.95;;;;;;;-5.67;89.12;98400.66;4948927;28;20051;-79
2024/01/15 05:08:04;;;;;;;204.23;95.22;;;;;;;-5.59;89.37;98397.31;4960016;28;20043;-79
2024/01/15 05:10:49;;;;;;;219.55;96.85;;;;;;;-5.51;89.17;98394.03;4962280;28;20057;-78
2024/01/15 05:13:35;;;;;;;241.63;104.55;;;;;;;-5.41;88.94;98392.16;4960150;28;20047;-77
2024/01/15 05:16:21;;;;;;;252.23;106.47;;;;;;;-5.34;89.72;98395.78;4963080;28;20424;-77
2024/01/15 05:19:07;;;;;;;247.23;105.82;;;;;;;-5.29;88.76;98393.56;4947717;28;21889;-78
2024/01/15 05:21:52;;;;;;;255.52;101.43;;;;;;;-5.30;89.15;98389.31;4953026;28;20387;-78
2024/01/15 05:24:38;;;;;;;250.43;112.90;;;;;;;-5.22;88.93;98368.69;4967560;28;20040;-78
2024/01/15 05:27:23;;;;;;;276.75;119.55;;;;;;;-5.06;89.51;98378.34;4959569;28;20048;-79
2024/01/15 05:30:09;;;;;;;277.55;116.95;;;;;;;-5.07;89.31;98365.56;4961050;28;20041;-78
2024/01/15 05:32:55;;;;;;;217.98;94.72;;;;;;;-5.21;88.27;98323.66;4964562;28;20056;-78
2024/01/15 05:35:40;;;;;;;222.27;89.95;;;;;;;-5.17;88.58;98321.59;4967758;28;20043;-78
2024/01/15 05:38:27;;;;;;;238.70;96.88;;;;;;;-5.10;89.08;98356.31;4966556;28;20374;-76
2024/01/15 05:41:13;;;;;;;227.63;102.43;;;;;;;-5.01;88.51;98344.22;4961322;28;20037;-77
2024/01/15 05:43:58;;;;;;;210.25;93.80;;;;;;;-5.02;88.88;98333.03;4960814;28;20461;-77
2024/01/15 05:46:44;;;;;;;164.32;75.03;;;;;;;-5.00;88.56;98322.53;4958788;28;20398;-77
2024/01/15 05:49:30;;;;;;;217.45;92.30;;;;;;;-4.96;88.50;98324.66;4963928;28;20051;-78
2024/01/15 05:52:16;;;;;;;234.70;103.20;;;;;;;-5.01;88.75;98308.75;4964218;28;20442;-77
2024/01/15 05:55:00;;;;;;;254.75;113.75;;;;;;;-4.90;88.96;98315.44;4963638;28;20388;-77
2024/01/15 05:57:46;;;;;;;215.82;100.80;;;;;;;-4.84;88.78;98324.41;4968794;28;20051;-77
2024/01/15 06:00:33;;;;;;;248.50;112.45;;;;;;;-4.91;89.57;98312.06;4951930;28;20402;-76
2024/01/15 06:03:18;;;;;;;235.43;107.07;;;;;;;-4.81;89.30;98303.34;4960481;28;20049;-76
2024/01/15 06:06:04;;;;;;;255.20;113.28;;;;;;;-4.73;89.41;98300.78;4959330;28;20049;-77
2024/01/15 06:08:49;;;;;;;268.30;121.50;;;;;;;-4.65;89.59;98304.22;4964409;28;20459;-78
2024/01/15 06:11:35;;;;;;;284.33;130.90;;;;;;;-4.56;88.49;98318.06;4964994;28;20400;-76
2024/01/15 06:14:20;;;;;;;299.48;140.23;;;;;;;-4.53;88.82;98304.78;4982687;28;20057;-78
2024/01/15 06:17:06;;;;;;;292.50;135.00;;;;;;;-4.50;89.20;98303.66;4977882;28;20492;-80
2024/01/15 06:19:52;;;;;;;212.23;83.45;;;;;;;-4.63;88.52;98304.09;4971357;28;20420;-78
2024/01/15 06:22:39;;;;;;;179.13;76.43;;;;;;;-4.59;88.15;98297.63;4995718;28;20057;-79
2024/01/15 06:25:24;;;;;;;295.45;124.32;;;;;;;-4.52;88.35;98303.00;4955822;28;20036;-77
2024/01/15 06:28:09;;;;;;;258.13;110.15;;;;;;;-4.56;88.70;98299.09;4961488;28;20053;-79
2024/01/15 06:30:55;;;;;;;243.05;113.25;;;;;;;-4.39;88.38;98312.94;4956097;28;20396;-77
2024/01/15 06:33:41;;;;;;;239.38;106.75;;;;;;;-4.40;89.45;98306.94;4976384;28;20472;-78
2024/01/15 06:36:26;;;;;;;225.73;102.05;;;;;;;-4.50;89.46;98303.66;4949818;28;20055;-78
2024/01/15 06:39:11;;;;;;;206.35;98.18;;;;;;;-4.43;88.36;98315.03;4955965;28;20408;-81
2024/01/15 06:41:57;;;;;;;232.45;109.45;;;;;;;-4.43;89.68;98307.25;4958548;28;20047;-80
2024/01/15 06:44:42;;;;;;;223.90;102.18;;;;;;;-4.33;89.13;98323.50;4956518;28;20402;-79
2024/01/15 06:47:28;;;;;;;211.32;94.40;;;;;;;-4.23;89.04;98319.00;4964296;28;20394;-77
2024/01/15 06:50:13;;;;;;;269.08;110.72;;;;;;;-4.20;88.96;98308.31;4960104;28;20065;-78
2024/01/15 06:52:59;;;;;;;243.55;102.03;;;;;;;-4.13;88.51;98318.06;4965935;28;20483;-77
2024/01/15 06:55:44;;;;;;;202.00;86.75;;;;;;;-4.18;88.29;98302.94;4966934;28;20050;-77
2024/01/15 06:58:31;;;;;;;177.27;79.80;;;;;;;-4.12;88.92;98307.50;4960985;28;20045;-77
2024/01/15 07:01:17;;;;;;;196.65;84.38;;;;;;;-4.16;88.85;98282.84;4959770;28;20037;-78
2024/01/15 07:04:03;;;;;;;218.60;98.38;;;;;;;-4.02;88.91;98276.22;4967563;28;20392;-80
2024/01/15 07:06:48;;;;;;;201.65;89.38;;;;;;;-3.99;88.23;98271.50;4958122;28;20051;-77
2024/01/15 07:09:33;;;;;;;196.98;87.20;;;;;;;-3.99;88.26;98292.28;4930611;28;20398;-78
2024/01/15 07:12:18;;;;;;;209.48;99.35;;;;;;;-3.88;89.14;98301.56;4946609;28;20051;-77
2024/01/15 07:15:06;;;;;;;187.85;85.97;;;;;;;-4.03;88.30;98293.59;4953164;28;20061;-76
2024/01/15 07:17:51;;;;;;;202.05;94.20;;;;;;;-4.00;88.54;98287.25;4955194;28;20041;-79
2024/01/15 07:20:37;;;;;;;215.18;100.88;;;;;;;-3.88;87.79;98285.19;4960590;28;20055;-76
2024/01/15 07:23:22;;;;;;;220.85;103.30;;;;;;;-3.85;87.82;98311.63;4953961;28;20049;-78
2024/01/15 07:26:08;;;;;;;227.77;110.90;;;;;;;-3.59;88.87;98308.06;4956832;28;20451;-79
2024/01/15 07:28:53;;;;;;;236.23;109.43;;;;;;;-3.59;87.29;98303.69;4955053;28;20057;-79
2024/01/15 07:31:39;;;;;;;143.05;63.67;;;;;;;-3.66;88.02;98297.53;4959331;28;20048;-78
2024/01/15 07:34:24;;;;;;;225.85;111.72;;;;;;;-3.62;87.26;98300.59;4960951;28;20045;-79
2024/01/15 07:37:10;;;;;;;232.93;106.93;;;;;;;-3.58;87.06;98313.09;4955128;28;20403;-79
2024/01/15 07:39:56;;;;;;;266.52;119.57;;;;;;;-3.47;87.06;98298.19;4960319;28;20452;-76
2024/01/15 07:42:42;;;;;;;286.60;131.85;;;;;;;-3.53;87.11;98300.44;4964177;28;20451;-77
2024/01/15 07:45:28;;;;;;;429.90;203.50;;;;;;;-3.35;87.71;98295.09;4966922;28;20054;-77
2024/01/15 07:48:14;;;;;;;244.77;110.75;;;;;;;-3.46;87.55;98305.00;4964117;28;20047;-77
2024/01/15 07:50:59;;;;;;;259.38;118.00;;;;;;;-3.39;87.80;98300.75;4966586;28;20449;-78
2024/01/15 07:53:44;;;;;;;245.73;121.47;;;;;;;-3.28;87.97;98297.84;4959517;28;20399;-79
2024/01/15 07:56:30;;;;;;;269.52;129.57;;;;;;;-3.14;87.36;98314.53;4955533;28;20411;-78
2024/01/15 07:59:16;;;;;;;272.88;130.60;;;;;;;-3.17;86.83;98302.69;4957527;28;20047;-78
2024/01/15 08:02:02;;;;;;;238.73;115.60;;;;;;;-3.06;87.58;98302.34;4949685;28;20041;-79
2024/01/15 08:04:47;;;;;;;253.93;116.45;;;;;;;-3.10;87.04;98284.66;4953942;28;20057;-76
2024/01/15 08:07:33;;;;;;;241.25;118.15;;;;;;;-3.04;86.18;98315.19;4977410;28;20104;-82
2024/01/15 08:10:18;;;;;;;208.30;92.35;;;;;;;-3.24;86.05;98288.72;4967361;28;20049;-78
2024/01/15 08:13:04;;;;;;;183.20;87.75;;;;;;;-3.20;86.51;98295.22;4959220;28;20490;-78
2024/01/15 08:15:50;;;;;;;179.63;88.80;;;;;;;-3.04;86.11;98299.56;4973247;28;20049;-78
2024/01/15 08:18:35;;;;;;;187.20;91.13;;;;;;;-2.99;86.36;98297.31;4967367;28;20045;-78
2024/01/15 08:21:20;;;;;;;179.75;87.35;;;;;;;-2.90;86.09;98295.50;4965665;28;20410;-78
2024/01/15 08:24:07;;;;;;;183.18;88.15;;;;;;;-2.86;85.98;98282.00;4964482;28;20396;-77
2024/01/15 08:26:52;;;;;;;203.52;97.65;;;;;;;-2.69;86.17;98287.16;4959033;28;20468;-78
2024/01/15 08:29:37;;;;;;;202.95;99.22;;;;;;;-2.81;85.76;98277.13;4957882;28;20055;-79
2024/01/15 08:32:23;;;;;;;220.68;105.30;;;;;;;-2.71;85.80;98276.91;4966979;28;20348;-81
2024/01/15 08:35:09;;;;;;;215.60;99.97;;;;;;;-2.66;85.92;98273.81;4964814;28;20059;-80
2024/01/15 08:37:55;;;;;;;223.18;108.68;;;;;;;-2.58;85.19;98281.56;4966798;28;20463;-78
2024/01/15 08:40:40;;;;;;;250.40;122.00;;;;;;;-2.44;85.49;98280.88;4959974;28;20060;-79
2024/01/15 08:43:26;;;;;;;216.75;105.75;;;;;;;-2.43;83.89;98273.88;4959890;28;20044;-80
2024/01/15 08:46:12;;;;;;;226.35;106.65;;;;;;;-2.30;83.82;98289.75;4968641;28;20386;-79
2024/01/15 08:48:58;;;;;;;230.50;110.13;;;;;;;-2.24;83.64;98273.44;4968217;28;20051;-78
2024/01/15 08:51:44;;;;;;;224.38;105.75;;;;;;;-1.93;83.57;98273.44;4963685;28;20467;-76
2024/01/15 08:54:29;;;;;;;234.23;111.15;;;;;;;-1.83;82.29;98269.78;4967229;28;21402;-78
2024/01/15 08:57:15;;;;;;;230.35;110.30;;;;;;;-1.77;82.20;98249.06;4952211;28;20048;-78
2024/01/15 09:00:01;;;;;;;229.13;107.72;;;;;;;-1.76;82.37;98252.47;4962013;28;20041;-77
2024/01/15 09:02:46;;;;;;;268.98;137.90;;;;;;;-1.79;82.96;98255.44;4963006;28;20412;-78
2024/01/15 09:05:32;;;;;;;311.52;156.43;;;;;;;-1.75;84.00;98248.91;4971240;28;20047;-79
2024/01/15 09:08:18;;;;;;;328.20;168.80;;;;;;;-1.67;82.83;98235.78;4971559;28;20051;-77
2024/01/15 09:11:03;;;;;;;384.77;207.32;;;;;;;-1.61;82.70;98234.28;4969407;28;20499;-80
2024/01/15 09:13:49;;;;;;;381.65;199.65;;;;;;;-1.44;82.84;98247.00;4964717;28;20392;-77
2024/01/15 09:16:35;;;;;;;343.95;175.98;;;;;;;-1.43;83.11;98237.38;4955327;28;20051;-78
2024/01/15 09:19:20;;;;;;;316.10;160.25;;;;;;;-1.31;81.75;98246.41;4967776;28;20150;-76
2024/01/15 09:22:05;;;;;;;274.42;141.07;;;;;;;-1.24;81.40;98236.06;4964749;28;20400;-77
2024/01/15 09:24:51;;;;;;;304.30;151.82;;;;;;;-1.09;81.14;98231.69;4953150;28;20457;-76
2024/01/15 09:27:37;;;;;;;381.55;178.50;;;;;;;-1.05;81.33;98230.31;4959450;28;20518;-78
2024/01/15 09:30:22;;;;;;;310.35;156.55;;;;;;;-1.02;80.82;98243.00;4963712;28;20045;-77
2024/01/15 09:33:09;;;;;;;295.70;153.55;;;;;;;-0.85;82.11;98220.16;4960846;28;20049;-76
2024/01/15 09:35:57;;;;;;;282.17;141.10;;;;;;;-0.71;80.26;98211.50;4958217;28;20064;-76
2024/01/15 09:38:43;;;;;;;250.43;127.78;;;;;;;-0.71;79.96;98221.13;4945971;28;20044;-78
2024/01/15 09:41:28;;;;;;;210.65;103.28;;;;;;;-0.64;79.25;98205.56;4960418;28;20078;-77
2024/01/15 09:44:14;;;;;;;247.98;120.97;;;;;;;-0.73;78.65;98213.47;4975604;28;20407;-77
2024/01/15 09:47:01;;;;;;;201.77;106.38;;;;;;;-0.89;79.70;98212.88;4952677;28;20404;-78
2024/01/15 09:49:46;;;;;;;217.50;109.22;;;;;;;-0.83;79.52;98201.72;4980023;28;20458;-79
2024/01/15 09:52:33;;;;;;;244.98;121.35;;;;;;;-1.00;79.65;98193.28;4969552;28;20045;-79
2024/01/15 09:55:19;;;;;;;300.52;145.82;;;;;;;-0.73;80.10;98191.81;4966482;28;20036;-78
2024/01/15 09:58:05;;;;;;;213.23;107.03;;;;;;;-0.75;79.41;98188.59;4959876;28;20047;-78
2024/01/15 10:00:51;;;;;;;319.25;129.55;;;;;;;-0.65;79.13;98186.50;4974969;28;20053;-79
2024/01/15 10:03:38;;;;;;;176.05;83.97;;;;;;;-0.64;78.45;98188.09;4968947;28;20464;-78
2024/01/15 10:06:27;;;;;;;159.13;74.72;;;;;;;-0.60;79.00;98201.59;4971491;28;20047;-79
2024/01/15 10:09:14;;;;;;;223.45;109.50;;;;;;;-0.75;79.45;98180.75;4953829;28;20471;-77
2024/01/15 10:12:01;;;;;;;311.95;146.15;;;;;;;-0.72;80.01;98175.19;4956997;28;20486;-79
2024/01/15 10:14:46;;;;;;;248.77;122.72;;;;;;;-0.74;79.82;98161.50;4957307;28;20049;-76
2024/01/15 10:17:32;;;;;;;257.10;123.90;;;;;;;-0.45;78.40;98170.25;4951556;28;20035;-79
2024/01/15 10:20:18;;;;;;;259.52;132.23;;;;;;;-0.54;77.99;98169.53;4955198;28;20502;-78
2024/01/15 10:23:04;;;;;;;278.02;143.00;;;;;;;-0.63;79.43;98165.41;4953356;28;20398;-78
2024/01/15 10:25:51;;;;;;;283.00;144.95;;;;;;;-0.57;80.03;98160.28;4955588;28;20048;-78
2024/01/15 10:28:42;;;;;;;300.98;154.40;;;;;;;-0.57;80.37;98157.66;4956800;28;20045;-78
2024/01/15 10:31:28;;;;;;;287.75;144.60;;;;;;;-0.68;80.39;98142.50;4954134;28;20049;-77
2024/01/15 10:34:15;;;;;;;277.27;143.43;;;;;;;-0.45;80.23;98150.16;4953882;28;20407;-78
2024/01/15 10:37:02;;;;;;;234.65;123.97;;;;;;;-0.55;80.59;98142.63;4967103;28;20047;-77
2024/01/15 10:39:49;;;;;;;221.52;112.13;;;;;;;-0.51;80.08;98128.22;4935630;28;20048;-78
2024/01/15 10:42:34;;;;;;;222.30;115.40;;;;;;;-0.50;79.40;98108.16;4951997;28;20048;-75
2024/01/15 10:45:20;;;;;;;243.68;130.20;;;;;;;-0.32;78.06;98113.72;4965312;28;20048;-78
2024/01/15 10:48:06;;;;;;;262.25;131.25;;;;;;;-0.47;78.53;98097.31;4969960;28;20045;-78
2024/01/15 10:50:51;;;;;;;239.20;120.97;;;;;;;-0.36;78.69;98114.31;4984895;28;20048;-77
2024/01/15 10:53:41;;;;;;;272.05;138.40;;;;;;;-0.42;78.72;98104.59;4945257;28;20049;-76
2024/01/15 10:56:28;;;;;;;253.45;133.32;;;;;;;-0.29;78.37;98102.13;4944748;28;20490;-77
2024/01/15 10:59:13;;;;;;;247.25;128.70;;;;;;;-0.05;78.01;98078.22;4966553;28;20235;-78
2024/01/15 11:01:59;;;;;;;251.30;131.02;;;;;;;0.10;77.88;98070.28;4945896;28;20079;-77
2024/01/15 11:04:44;;;;;;;250.23;130.88;;;;;;;0.19;77.21;98050.88;4964475;28;20055;-77
2024/01/15 11:07:30;;;;;;;252.82;134.27;;;;;;;0.33;77.28;98075.25;4954197;28;20091;-75
2024/01/15 11:10:45;;;;;;;272.55;137.32;;;;;;;0.40;77.29;98051.75;4953288;28;20057;-76
2024/01/15 11:13:30;;;;;;;272.98;140.45;;;;;;;0.55;76.80;98059.50;4955543;28;20067;-77
2024/01/15 11:16:17;;;;;;;292.30;146.60;;;;;;;0.53;76.31;98058.88;4962514;28;20053;-76
2024/01/15 11:19:03;;;;;;;257.33;131.07;;;;;;;0.73;76.62;98046.69;4956617;28;20400;-77
2024/01/15 11:21:48;;;;;;;294.45;154.05;;;;;;;0.72;76.55;98026.75;4952417;28;20054;-77
2024/01/15 11:24:39;;;;;;;303.67;160.45;;;;;;;0.49;77.12;98029.69;4956592;28;20056;-77
2024/01/15 11:27:52;;;;;;;334.08;175.65;;;;;;;0.50;77.90;98043.56;4956227;28;20487;-77
2024/01/15 11:30:37;;;;;;;312.70;159.80;;;;;;;0.41;77.58;98024.66;4952357;28;20484;-76
2024/01/15 11:33:32;;;;;;;189.65;86.60;;;;;;;0.30;77.62;98031.22;4957344;28;20043;-77
2024/01/15 11:36:18;;;;;;;259.10;130.60;;;;;;;0.15;77.30;98017.44;4960042;28;20488;-77
2024/01/15 11:39:29;;;;;;;271.25;135.75;;;;;;;0.44;77.98;98013.81;4949402;28;20040;-76
2024/01/15 11:42:16;;;;;;;214.07;104.90;;;;;;;0.57;78.07;98023.50;4960849;28;20404;-76
2024/01/15 11:45:03;;;;;;;232.75;115.30;;;;;;;0.75;77.30;98023.75;4954245;28;20049;-78
2024/01/15 11:48:07;;;;;;;231.60;115.95;;;;;;;0.86;77.50;98025.81;4955586;28;20044;-77
2024/01/15 11:50:55;;;;;;;263.37;135.50;;;;;;;0.92;77.17;98024.22;4994196;28;20041;-77
2024/01/15 11:53:47;;;;;;;227.10;113.72;;;;;;;0.85;77.70;98033.88;4954243;28;20267;-78
2024/01/15 11:56:33;;;;;;;190.63;94.13;;;;;;;0.54;78.16;98032.53;4925862;28;20614;-78
2024/01/15 11:59:19;;;;;;;211.30;113.97;;;;;;;0.81;78.42;98024.78;4961712;28;20075;-77
2024/01/15 12:02:05;;;;;;;217.40;113.38;;;;;;;0.79;77.67;98035.47;4957499;28;20406;-79
2024/01/15 12:04:51;;;;;;;207.60;107.30;;;;;;;0.70;77.78;98036.63;4968484;28;20045;-78
2024/01/15 12:07:36;;;;;;;185.10;96.65;;;;;;;0.42;77.62;98027.06;4952054;28;20037;-77
2024/01/15 12:10:23;;;;;;;219.05;114.65;;;;;;;0.55;78.65;98043.81;4959617;28;20100;-77
2024/01/15 12:13:15;;;;;;;213.52;109.45;;;;;;;0.65;78.28;98044.25;4978290;28;20049;-79
2024/01/15 12:16:04;;;;;;;207.43;108.38;;;;;;;0.54;78.54;98026.50;4948083;28;20037;-76
2024/01/15 12:18:49;;;;;;;197.38;101.63;;;;;;;0.45;78.93;98033.72;4954328;28;20484;-76
2024/01/15 12:21:34;;;;;;;221.95;114.55;;;;;;;0.53;79.35;98040.56;4956269;28;20485;-77
2024/01/15 12:24:20;;;;;;;215.63;107.78;;;;;;;0.54;79.64;98045.63;4956184;28;20042;-76
2024/01/15 12:27:11;;;;;;;54.78;24.58;;;;;;;0.45;80.45;98039.75;4950565;28;20399;-75
2024/01/15 12:29:58;;;;;;;76.13;37.13;;;;;;;0.36;80.48;98034.88;4959435;28;20418;-75
2024/01/15 12:32:50;;;;;;;102.43;48.00;;;;;;;0.22;81.29;98029.56;4952961;28;20064;-77